createdAt,value
2022-12-09T00:01:21.094Z,18.80
2022-12-09T00:03:48.183Z,15.87
2022-12-09T00:06:22.969Z,17.83
2022-12-09T00:08:50.150Z,14.75
2022-12-09T00:11:17.515Z,15.27
2022-12-09T00:13:44.452Z,14.93
2022-12-09T00:16:13.537Z,14.40
2022-12-09T00:18:40.657Z,15.57
2022-12-09T00:21:25.229Z,19.95
2022-12-09T00:23:53.141Z,20.17
2022-12-09T00:26:20.977Z,19.27
2022-12-09T00:28:49.072Z,19.57
2022-12-09T00:31:18.403Z,19.20
2022-12-09T00:33:45.380Z,19.13
2022-12-09T00:36:14.640Z,16.93
2022-12-09T00:38:41.523Z,16.93
2022-12-09T00:41:07.957Z,18.63
2022-12-09T00:43:34.872Z,19.83
2022-12-09T00:46:01.684Z,19.27
2022-12-09T00:48:28.791Z,18.90
2022-12-09T00:50:55.419Z,21.60
2022-12-09T00:53:21.925Z,20.60
2022-12-09T00:55:48.572Z,20.10
2022-12-09T00:58:15.136Z,19.20
2022-12-09T01:00:41.587Z,18.47
2022-12-09T01:03:12.902Z,20.93
2022-12-09T01:05:39.564Z,19.33
2022-12-09T01:08:06.364Z,19.27
2022-12-09T01:10:36.856Z,18.93
2022-12-09T01:13:03.406Z,19.50
2022-12-09T01:15:30.607Z,18.23
2022-12-09T01:17:57.280Z,17.77
2022-12-09T01:20:24.138Z,19.02
2022-12-09T01:22:50.562Z,18.03
2022-12-09T01:25:17.026Z,19.70
2022-12-09T01:27:44.303Z,18.57
2022-12-09T01:30:13.011Z,18.80
2022-12-09T01:32:40.176Z,18.27
2022-12-09T01:35:07.250Z,17.60
2022-12-09T01:37:37.395Z,20.05
2022-12-09T01:40:12.142Z,18.47
2022-12-09T01:42:38.761Z,18.98
2022-12-09T01:45:23.582Z,17.93
2022-12-09T01:48:05.485Z,18.70
2022-12-09T01:50:33.438Z,23.65
2022-12-09T01:52:59.908Z,22.10
2022-12-09T01:55:27.373Z,20.17
2022-12-09T01:57:54.135Z,19.80
2022-12-09T02:00:20.967Z,20.60
2022-12-09T02:02:49.156Z,21.30
2022-12-09T02:05:16.223Z,19.90
2022-12-09T02:07:43.074Z,20.13
2022-12-09T02:10:13.020Z,23.73
2022-12-09T02:13:01.433Z,21.43
2022-12-09T02:15:52.310Z,19.93
2022-12-09T02:18:23.691Z,22.97
2022-12-09T02:20:56.664Z,19.20
2022-12-09T02:23:28.052Z,21.50
2022-12-09T02:26:06.388Z,19.83
2022-12-09T02:28:33.181Z,19.87
2022-12-09T02:31:20.444Z,22.30
2022-12-09T02:34:15.339Z,23.17
2022-12-09T02:37:03.713Z,21.83
2022-12-09T02:39:35.592Z,19.20
2022-12-09T02:42:04.692Z,18.93
2022-12-09T02:44:31.896Z,18.13
2022-12-09T02:46:59.007Z,19.83
2022-12-09T02:49:27.415Z,16.50
2022-12-09T02:51:54.431Z,16.77
2022-12-09T02:54:21.518Z,16.30
2022-12-09T02:56:57.192Z,16.63
2022-12-09T02:59:23.780Z,16.50
2022-12-09T03:02:18.578Z,16.43
2022-12-09T03:04:49.715Z,16.43
2022-12-09T03:07:30.848Z,15.73
2022-12-09T03:10:06.527Z,16.23
2022-12-09T03:12:34.165Z,17.20
2022-12-09T03:15:04.583Z,14.67
2022-12-09T03:17:34.178Z,14.57
2022-12-09T03:20:06.726Z,15.00
2022-12-09T03:22:35.555Z,15.60
2022-12-09T03:25:10.551Z,15.80
2022-12-09T03:27:57.774Z,14.50
2022-12-09T03:30:24.599Z,15.80
2022-12-09T03:32:51.592Z,16.30
2022-12-09T03:35:22.772Z,15.33
2022-12-09T03:37:51.260Z,17.07
2022-12-09T03:40:21.127Z,16.00
2022-12-09T03:42:51.378Z,17.73
2022-12-09T03:45:18.397Z,14.47
2022-12-09T03:47:45.209Z,17.30
2022-12-09T03:50:12.559Z,15.77
2022-12-09T03:52:52.875Z,14.83
2022-12-09T03:55:51.678Z,14.43
2022-12-09T03:58:18.092Z,16.17
2022-12-09T04:00:44.960Z,18.53
2022-12-09T04:03:13.503Z,18.00
2022-12-09T04:05:40.283Z,20.37
2022-12-09T04:08:07.181Z,18.50
2022-12-09T04:10:33.946Z,17.33
2022-12-09T04:13:00.373Z,18.87
2022-12-09T04:15:26.947Z,16.83
2022-12-09T04:17:53.509Z,17.13
2022-12-09T04:20:20.094Z,17.40
2022-12-09T04:22:46.902Z,18.10
2022-12-09T04:25:13.732Z,16.90
2022-12-09T04:27:40.223Z,16.60
2022-12-09T04:30:07.825Z,16.83
2022-12-09T04:32:34.659Z,17.60
2022-12-09T04:35:01.551Z,16.87
2022-12-09T04:37:28.275Z,15.90
2022-12-09T04:39:55.366Z,15.27
2022-12-09T04:42:21.868Z,15.90
2022-12-09T04:44:48.239Z,17.30
2022-12-09T04:47:14.896Z,18.23
2022-12-09T04:49:41.482Z,16.30
2022-12-09T04:52:08.025Z,16.23
2022-12-09T04:54:34.661Z,16.87
2022-12-09T04:57:01.115Z,16.67
2022-12-09T04:59:30.193Z,15.93
2022-12-09T05:01:56.751Z,16.40
2022-12-09T05:04:24.085Z,19.57
2022-12-09T05:06:50.728Z,16.93
2022-12-09T05:09:17.566Z,17.90
2022-12-09T05:11:44.316Z,18.97
2022-12-09T05:14:10.891Z,18.73
2022-12-09T05:16:37.491Z,24.67
2022-12-09T05:19:04.728Z,26.13
2022-12-09T05:21:31.414Z,29.40
2022-12-09T05:23:58.366Z,25.27
2022-12-09T05:26:25.111Z,33.53
2022-12-09T05:28:52.005Z,39.33
2022-12-09T05:31:21.995Z,29.43
2022-12-09T05:33:49.841Z,24.07
2022-12-09T05:36:20.160Z,40.17
2022-12-09T05:38:47.031Z,23.40
2022-12-09T05:41:13.641Z,23.27
2022-12-09T05:43:40.303Z,21.23
2022-12-09T05:46:07.830Z,22.43
2022-12-09T05:48:35.403Z,27.47
2022-12-09T05:51:08.142Z,24.67
2022-12-09T05:53:35.336Z,20.83
2022-12-09T05:56:02.305Z,21.40
2022-12-09T05:58:29.572Z,22.47
2022-12-09T06:00:57.939Z,27.80
2022-12-09T06:03:25.191Z,22.37
2022-12-09T06:05:52.367Z,23.80
2022-12-09T06:08:19.045Z,24.33
2022-12-09T06:10:45.610Z,26.60
2022-12-09T06:13:12.237Z,30.10
2022-12-09T06:15:39.171Z,31.50
2022-12-09T06:18:05.802Z,22.80
2022-12-09T06:20:32.526Z,23.73
2022-12-09T06:22:59.018Z,22.93
2022-12-09T06:25:26.184Z,22.20
2022-12-09T06:27:53.926Z,19.77
2022-12-09T06:30:20.951Z,19.83
2022-12-09T06:32:47.725Z,26.37
2022-12-09T06:35:15.446Z,26.33
2022-12-09T06:37:42.337Z,25.67
2022-12-09T06:40:09.503Z,24.23
2022-12-09T06:42:36.327Z,25.43
2022-12-09T06:45:03.196Z,19.50
2022-12-09T06:47:29.762Z,20.53
2022-12-09T06:50:02.586Z,21.67
2022-12-09T06:52:32.894Z,24.10
2022-12-09T06:54:59.444Z,24.50
2022-12-09T06:57:26.240Z,20.40
2022-12-09T06:59:53.068Z,20.53
2022-12-09T07:02:19.767Z,23.80
2022-12-09T07:04:46.883Z,43.10
2022-12-09T07:07:15.103Z,23.60
2022-12-09T07:09:41.992Z,25.47
2022-12-09T07:12:08.603Z,31.20
2022-12-09T07:14:36.899Z,26.33
2022-12-09T07:17:04.036Z,28.53
2022-12-09T07:19:31.325Z,30.33
2022-12-09T07:21:58.047Z,30.83
2022-12-09T07:24:24.796Z,30.40
2022-12-09T07:26:52.156Z,31.93
2022-12-09T07:29:18.908Z,29.97
2022-12-09T07:31:47.663Z,25.50
2022-12-09T07:34:14.463Z,26.33
2022-12-09T07:36:41.412Z,24.67
2022-12-09T07:39:12.090Z,25.83
2022-12-09T07:41:39.356Z,26.83
2022-12-09T07:44:06.241Z,27.37
2022-12-09T07:46:33.230Z,31.70
2022-12-09T07:49:01.962Z,36.20
2022-12-09T07:51:29.593Z,63.30
2022-12-09T07:53:57.151Z,36.57
2022-12-09T07:56:24.022Z,35.30
2022-12-09T07:58:53.385Z,25.03
2022-12-09T08:01:26.001Z,38.13
2022-12-09T08:03:53.281Z,30.00
2022-12-09T08:06:22.648Z,29.27
2022-12-09T08:08:50.225Z,49.00
2022-12-09T08:11:25.838Z,25.00
2022-12-09T08:13:53.919Z,40.63
2022-12-09T08:16:22.598Z,39.60
2022-12-09T08:18:50.458Z,43.23
2022-12-09T08:21:30.616Z,39.13
2022-12-09T08:23:59.759Z,44.07
2022-12-09T08:26:28.677Z,35.93
2022-12-09T08:28:55.648Z,36.97
2022-12-09T08:31:24.738Z,32.77
2022-12-09T08:33:52.263Z,45.50
2022-12-09T08:36:24.748Z,33.53
2022-12-09T08:38:51.642Z,30.77
2022-12-09T08:41:36.350Z,32.60
2022-12-09T08:44:15.555Z,37.53
2022-12-09T08:46:44.785Z,41.33
2022-12-09T08:49:12.622Z,39.90
2022-12-09T08:51:39.715Z,39.87
2022-12-09T08:54:06.966Z,36.83
2022-12-09T08:56:33.711Z,37.97
2022-12-09T08:59:00.585Z,34.23
2022-12-09T09:01:32.999Z,33.20
2022-12-09T09:04:15.532Z,32.33
2022-12-09T09:06:44.661Z,29.80
2022-12-09T09:09:13.282Z,30.67
2022-12-09T09:11:40.669Z,28.50
2022-12-09T09:14:10.233Z,28.37
2022-12-09T09:16:40.037Z,26.43
2022-12-09T09:19:07.886Z,25.63
2022-12-09T09:21:35.616Z,24.87
2022-12-09T09:24:03.071Z,28.03
2022-12-09T09:26:29.740Z,27.20
2022-12-09T09:28:57.977Z,27.93
2022-12-09T09:31:25.785Z,24.83
2022-12-09T09:33:53.032Z,25.03
2022-12-09T09:36:22.755Z,26.63
2022-12-09T09:38:51.464Z,29.63
2022-12-09T09:41:40.229Z,29.63
2022-12-09T09:44:22.517Z,30.60
2022-12-09T09:46:50.772Z,34.10
2022-12-09T09:49:23.744Z,37.40
2022-12-09T09:51:50.600Z,34.87
2022-12-09T09:54:17.460Z,33.53
2022-12-09T09:57:01.485Z,34.10
2022-12-09T09:59:40.059Z,32.00
2022-12-09T10:02:19.717Z,32.00
2022-12-09T10:05:26.065Z,32.23
2022-12-09T10:07:57.174Z,26.20
2022-12-09T10:10:44.532Z,26.73
2022-12-09T10:13:30.127Z,25.03
2022-12-09T10:16:27.163Z,25.20
2022-12-09T10:19:09.787Z,26.13
2022-12-09T10:21:40.998Z,25.50
2022-12-09T10:24:37.346Z,27.87
2022-12-09T10:27:21.239Z,25.53
2022-12-09T10:30:07.192Z,28.47
2022-12-09T10:32:35.840Z,25.97
2022-12-09T10:35:14.263Z,28.43
2022-12-09T10:37:41.045Z,29.90
2022-12-09T10:40:07.937Z,27.83
2022-12-09T10:43:05.682Z,29.43
2022-12-09T10:46:07.948Z,29.43
2022-12-09T10:48:33.641Z,29.17
2022-12-09T10:51:26.077Z,26.80
2022-12-09T10:53:54.887Z,21.20
2022-12-09T10:56:32.464Z,20.87
2022-12-09T10:59:20.349Z,18.17
2022-12-09T11:01:55.013Z,17.20
2022-12-09T11:04:25.660Z,14.83
2022-12-09T11:06:59.456Z,16.07
2022-12-09T11:09:37.850Z,15.27
2022-12-09T11:12:06.934Z,13.37
2022-12-09T11:14:33.609Z,13.07
2022-12-09T11:17:10.423Z,13.47
2022-12-09T11:19:39.093Z,13.07
2022-12-09T11:22:39.576Z,12.43
2022-12-09T11:25:13.039Z,12.33
2022-12-09T11:27:41.351Z,11.57
2022-12-09T11:30:17.777Z,12.43
2022-12-09T11:33:06.892Z,11.30
2022-12-09T11:35:36.539Z,10.93
2022-12-09T11:38:24.851Z,11.10
2022-12-09T11:41:02.031Z,11.23
2022-12-09T11:43:55.694Z,11.70
2022-12-09T11:46:25.206Z,11.30
2022-12-09T11:49:01.003Z,11.13
2022-12-09T11:51:36.334Z,11.03
2022-12-09T11:54:13.164Z,11.67
2022-12-09T11:56:40.917Z,11.10
2022-12-09T11:59:14.460Z,11.53
2022-12-09T12:01:52.452Z,11.33
2022-12-09T12:04:24.888Z,12.13
2022-12-09T12:07:01.635Z,12.87
2022-12-09T12:09:42.924Z,10.63
2022-12-09T12:12:09.208Z,10.27
2022-12-09T12:14:36.936Z,10.35
2022-12-09T12:17:18.147Z,10.82
2022-12-09T12:19:50.634Z,9.10
2022-12-09T12:22:50.196Z,9.02
2022-12-09T12:25:31.756Z,8.10
2022-12-09T12:28:26.164Z,8.85
2022-12-09T12:31:11.334Z,8.20
2022-12-09T12:34:24.062Z,7.35
2022-12-09T12:37:27.940Z,7.80
2022-12-09T12:40:08.185Z,7.65
2022-12-09T12:43:03.224Z,7.90
2022-12-09T12:45:54.973Z,7.47
2022-12-09T12:48:29.690Z,7.97
2022-12-09T12:51:08.075Z,8.10
2022-12-09T12:53:34.402Z,8.13
2022-12-09T12:56:08.539Z,7.87
2022-12-09T12:59:00.293Z,8.27
2022-12-09T13:01:30.600Z,7.78
2022-12-09T13:04:03.023Z,8.33
2022-12-09T13:06:56.338Z,8.40
2022-12-09T13:09:41.240Z,8.00
2022-12-09T13:12:45.662Z,7.68
2022-12-09T13:15:14.992Z,7.80
2022-12-09T13:17:42.538Z,7.93
2022-12-09T13:20:13.755Z,7.30
2022-12-09T13:23:02.034Z,6.80
2022-12-09T13:25:58.946Z,7.10
2022-12-09T13:28:30.611Z,6.97
2022-12-09T13:30:59.070Z,7.80
2022-12-09T13:34:04.413Z,7.67
2022-12-09T13:36:40.183Z,7.63
2022-12-09T13:39:09.977Z,7.82
2022-12-09T13:41:59.230Z,8.82
2022-12-09T13:44:30.860Z,9.25
2022-12-09T13:47:23.743Z,9.65
2022-12-09T13:50:06.290Z,13.68
2022-12-09T13:52:48.900Z,13.15
2022-12-09T13:55:32.892Z,9.10
2022-12-09T13:58:37.061Z,15.20
2022-12-09T14:01:12.420Z,13.88
2022-12-09T14:03:44.872Z,47.75
2022-12-09T14:06:40.704Z,38.63
2022-12-09T14:09:24.508Z,12.00
2022-12-09T14:11:52.900Z,20.00
2022-12-09T14:14:25.427Z,19.35
2022-12-09T14:16:59.815Z,11.57
2022-12-09T14:19:26.409Z,85.53
2022-12-09T14:22:21.593Z,34.72
2022-12-09T14:24:50.799Z,16.42
2022-12-09T14:27:21.221Z,12.88
2022-12-09T14:30:03.882Z,11.05
2022-12-09T14:32:55.011Z,15.60
2022-12-09T14:35:24.036Z,9.70
2022-12-09T14:38:14.878Z,20.83
2022-12-09T14:41:06.282Z,9.93
2022-12-09T14:43:45.839Z,20.35
2022-12-09T14:46:30.146Z,29.80
2022-12-09T14:48:58.205Z,25.05
2022-12-09T14:51:39.025Z,27.27
2022-12-09T14:54:33.872Z,17.90
2022-12-09T14:57:06.999Z,32.72
2022-12-09T14:59:34.170Z,27.23
2022-12-09T15:02:04.223Z,19.40
2022-12-09T15:04:41.976Z,13.90
2022-12-09T15:07:16.043Z,10.27
2022-12-09T15:09:54.807Z,11.03
2022-12-09T15:12:44.945Z,25.70
2022-12-09T15:15:31.597Z,20.70
2022-12-09T15:18:01.099Z,19.57
2022-12-09T15:20:33.887Z,18.97
2022-12-09T15:23:03.597Z,18.80
2022-12-09T15:25:30.125Z,11.93
2022-12-09T15:28:02.726Z,12.20
2022-12-09T15:30:37.000Z,13.20
2022-12-09T15:33:04.070Z,12.43
2022-12-09T15:35:33.787Z,12.17
2022-12-09T15:38:03.212Z,13.87
2022-12-09T15:40:30.666Z,11.63
2022-12-09T15:43:03.273Z,11.37
2022-12-09T15:45:35.873Z,11.20
2022-12-09T15:48:05.117Z,11.73
2022-12-09T15:50:37.595Z,10.83
2022-12-09T15:53:28.273Z,10.57
2022-12-09T15:56:03.334Z,28.07
2022-12-09T15:58:34.378Z,21.53
2022-12-09T16:01:01.876Z,39.73
2022-12-09T16:03:30.067Z,44.37
2022-12-09T16:05:58.678Z,36.30
2022-12-09T16:08:32.294Z,21.97
2022-12-09T16:10:58.784Z,13.50
2022-12-09T16:13:25.304Z,12.73
2022-12-09T16:15:54.297Z,11.10
2022-12-09T16:18:35.054Z,12.23
2022-12-09T16:21:01.428Z,14.57
2022-12-09T16:23:27.932Z,11.17
2022-12-09T16:26:04.904Z,10.63
2022-12-09T16:28:33.333Z,9.93
2022-12-09T16:31:02.589Z,9.50
2022-12-09T16:33:33.320Z,7.87
2022-12-09T16:36:02.273Z,8.93
2022-12-09T16:38:30.090Z,8.10
2022-12-09T16:40:58.983Z,8.53
2022-12-09T16:43:26.369Z,8.20
2022-12-09T16:45:56.324Z,7.83
2022-12-09T16:48:24.649Z,7.70
2022-12-09T16:50:54.363Z,7.20
2022-12-09T16:53:23.566Z,7.53
2022-12-09T16:56:00.993Z,6.97
2022-12-09T16:58:33.578Z,7.10
2022-12-09T17:01:01.056Z,10.07
2022-12-09T17:03:33.560Z,8.60
2022-12-09T17:06:01.181Z,11.23
2022-12-09T17:08:27.841Z,11.20
2022-12-09T17:10:54.403Z,12.23
2022-12-09T17:13:20.831Z,14.50
2022-12-09T17:15:47.257Z,16.93
2022-12-09T17:18:13.703Z,19.37
2022-12-09T17:20:40.280Z,18.93
2022-12-09T17:23:06.734Z,15.43
2022-12-09T17:25:33.273Z,12.50
2022-12-09T17:28:05.792Z,9.53
2022-12-09T17:30:37.070Z,10.20
2022-12-09T17:33:03.554Z,10.67
2022-12-09T17:35:33.716Z,9.80
2022-12-09T17:38:02.192Z,10.20
2022-12-09T17:40:28.571Z,9.80
2022-12-09T17:42:55.025Z,10.13
2022-12-09T17:45:21.402Z,12.50
2022-12-09T17:47:48.783Z,11.47
2022-12-09T17:50:15.289Z,10.97
2022-12-09T17:52:42.180Z,13.67
2022-12-09T17:55:08.931Z,13.37
2022-12-09T17:57:35.495Z,13.97
2022-12-09T18:00:02.425Z,14.67
2022-12-09T18:02:28.936Z,16.47
2022-12-09T18:04:55.410Z,17.03
2022-12-09T18:07:21.775Z,17.40
2022-12-09T18:09:54.205Z,18.77
2022-12-09T18:12:21.001Z,17.67
2022-12-09T18:14:47.501Z,19.60
2022-12-09T18:17:13.887Z,19.67
2022-12-09T18:19:40.357Z,26.60
2022-12-09T18:22:06.821Z,33.33
2022-12-09T18:24:33.510Z,31.43
2022-12-09T18:27:00.287Z,27.83
2022-12-09T18:29:27.024Z,28.07
2022-12-09T18:31:56.720Z,24.70
2022-12-09T18:34:24.272Z,21.43
2022-12-09T18:36:50.808Z,24.87
2022-12-09T18:39:26.501Z,26.57
2022-12-09T18:41:53.002Z,27.10
2022-12-09T18:44:19.687Z,28.10
2022-12-09T18:46:48.761Z,29.00
2022-12-09T18:49:17.986Z,25.87
2022-12-09T18:51:45.824Z,22.17
2022-12-09T18:54:20.509Z,27.67
2022-12-09T18:56:47.003Z,22.40
2022-12-09T18:59:13.479Z,23.47
2022-12-09T19:01:42.399Z,23.87
2022-12-09T19:04:24.210Z,24.67
2022-12-09T19:06:52.622Z,20.90
2022-12-09T19:09:21.418Z,19.23
2022-12-09T19:11:48.984Z,19.07
2022-12-09T19:14:16.496Z,17.93
2022-12-09T19:16:46.093Z,18.70
2022-12-09T19:19:18.437Z,28.53
2022-12-09T19:21:45.567Z,28.70
2022-12-09T19:24:16.282Z,25.50
2022-12-09T19:26:43.255Z,26.07
2022-12-09T19:29:10.511Z,25.07
2022-12-09T19:31:41.191Z,24.20
2022-12-09T19:34:12.755Z,19.77
2022-12-09T19:36:39.409Z,21.23
2022-12-09T19:39:08.193Z,22.50
2022-12-09T19:41:35.924Z,19.40
2022-12-09T19:44:04.031Z,18.73
2022-12-09T19:46:31.249Z,19.47
2022-12-09T19:48:58.464Z,23.17
2022-12-09T19:51:26.049Z,23.77
2022-12-09T19:53:54.087Z,23.30
2022-12-09T19:56:20.974Z,23.43
2022-12-09T19:58:47.727Z,22.10
2022-12-09T20:01:16.289Z,20.73
2022-12-09T20:03:44.542Z,20.53
2022-12-09T20:06:13.393Z,20.00
2022-12-09T20:08:39.867Z,21.77
2022-12-09T20:11:11.849Z,19.53
2022-12-09T20:13:38.251Z,20.20
2022-12-09T20:16:05.951Z,20.67
2022-12-09T20:18:32.507Z,22.27
2022-12-09T20:21:02.527Z,20.90
2022-12-09T20:23:28.946Z,22.37
2022-12-09T20:25:55.644Z,22.17
2022-12-09T20:28:22.048Z,22.40
2022-12-09T20:30:48.647Z,22.50
2022-12-09T20:33:15.075Z,27.80
2022-12-09T20:35:41.495Z,34.93
2022-12-09T20:38:08.290Z,34.70
2022-12-09T20:40:40.527Z,32.10
2022-12-09T20:43:07.287Z,27.43
2022-12-09T20:45:33.750Z,30.13
2022-12-09T20:48:00.204Z,26.30
2022-12-09T20:50:26.626Z,24.33
2022-12-09T20:52:53.310Z,24.33
2022-12-09T20:55:20.517Z,24.40
2022-12-09T20:57:46.904Z,24.30
2022-12-09T21:00:13.526Z,24.10
2022-12-09T21:02:40.060Z,28.63
2022-12-09T21:05:08.364Z,28.73
2022-12-09T21:07:34.871Z,27.10
2022-12-09T21:10:01.351Z,25.83
2022-12-09T21:12:27.719Z,22.10
2022-12-09T21:14:54.157Z,20.63
2022-12-09T21:17:20.573Z,19.00
2022-12-09T21:19:47.212Z,20.53
2022-12-09T21:22:13.590Z,19.90
2022-12-09T21:24:40.022Z,23.70
2022-12-09T21:27:06.419Z,22.77
2022-12-09T21:29:32.811Z,23.97
2022-12-09T21:32:00.420Z,21.13
2022-12-09T21:34:27.146Z,21.07
2022-12-09T21:36:53.538Z,22.83
2022-12-09T21:39:20.012Z,27.83
2022-12-09T21:41:46.619Z,39.23
2022-12-09T21:44:17.094Z,41.93
2022-12-09T21:46:43.848Z,42.80
2022-12-09T21:49:10.772Z,39.97
2022-12-09T21:51:37.573Z,42.77
2022-12-09T21:54:07.556Z,41.77
2022-12-09T21:56:35.658Z,45.13
2022-12-09T21:59:03.261Z,38.97
2022-12-09T22:01:34.079Z,35.63
2022-12-09T22:04:01.914Z,34.93
2022-12-09T22:06:28.954Z,35.73
2022-12-09T22:08:55.970Z,34.07
2022-12-09T22:11:24.873Z,34.30
2022-12-09T22:13:51.945Z,40.10
2022-12-09T22:16:23.490Z,42.80
2022-12-09T22:18:52.863Z,41.27
2022-12-09T22:21:25.732Z,41.70
2022-12-09T22:24:00.342Z,36.77
2022-12-09T22:26:27.285Z,32.60
2022-12-09T22:28:54.086Z,32.53
2022-12-09T22:31:29.505Z,36.63
2022-12-09T22:33:59.822Z,38.03
2022-12-09T22:36:26.516Z,33.10
2022-12-09T22:38:53.500Z,32.93
2022-12-09T22:41:22.682Z,32.33
2022-12-09T22:43:49.817Z,35.97
2022-12-09T22:46:21.583Z,34.67
2022-12-09T22:48:48.439Z,34.77
2022-12-09T22:51:17.612Z,34.97
2022-12-09T22:53:44.561Z,34.73
2022-12-09T22:56:11.783Z,34.70
2022-12-09T22:58:38.543Z,32.47
2022-12-09T23:01:16.853Z,29.73
2022-12-09T23:03:45.034Z,31.90
2022-12-09T23:06:11.752Z,35.03
2022-12-09T23:08:39.423Z,33.97
2022-12-09T23:11:22.984Z,31.67
2022-12-09T23:13:49.660Z,31.00
2022-12-09T23:16:19.014Z,34.10
2022-12-09T23:18:46.070Z,34.17
2022-12-09T23:21:17.748Z,33.63
2022-12-09T23:23:44.496Z,33.83
2022-12-09T23:26:13.318Z,34.47
2022-12-09T23:28:45.056Z,33.13
2022-12-09T23:31:13.931Z,34.53
2022-12-09T23:33:42.172Z,34.37
2022-12-09T23:36:10.206Z,36.47
2022-12-09T23:38:37.594Z,31.83
2022-12-09T23:41:04.486Z,38.80
2022-12-09T23:43:32.025Z,32.37
2022-12-09T23:46:12.897Z,31.57
2022-12-09T23:48:41.944Z,32.90
2022-12-09T23:51:12.489Z,29.83
2022-12-09T23:53:40.037Z,31.27
2022-12-09T23:56:07.531Z,30.90
2022-12-09T23:58:34.096Z,29.73
